Bluetown, Texas
Current Conditions -  °F | °C
As of 7:15 PM on Tuesday 27 Jan 2015 (Local Time) from KT65 Reporting Station
Clear Clear  
Wind Chill: 67°   Ceiling: Unl
Heat Index: 67°   Visibility: 7mi
Dew Point: 41°   Wind: 7mph
Humidity: 38%   Direction: 160°SSE
Pressure: 30.16"   Gusts: NA
Location:  26.0737°N, 97.8225°W
Report Text: KT65 280115Z AUTO 16006KT 7SM CLR 20/05 A3016 RMK AO2 T01970050
Loading
Personal Weather Stations






























Interactive Weather Map New forecast layout! Learn more

10-Day Weather Forecast

Advertisements
Track Severe Weather on mobile